Mamoudzou, Yemen
Current Conditions -  °F | °C
As of 4:30 AM on Friday 19 Dec 2014 (Local Time) from FMCZ Reporting Station
Few Clouds Few Clouds  
Wind Chill: 82°   Ceiling: Unl
Heat Index: 89°   Visibility: 6mi
Dew Point: 75°   Wind: 7mph
Humidity: 79%   Direction: 10°N
Pressure: 29.83"   Gusts: NA
Location:  12.8°S, 45.23°E
Report Text: FMCZ 190130Z AUTO 01006KT 9999 FEW018/// 28/24 Q1010
Loading
Personal Weather Stations






























Interactive Weather Map New forecast layout! Learn more

10-Day Weather Forecast

Advertisements
Track Severe Weather on mobile